Aurora, Iowa
Current Conditions -  °F | °C
As of 7:55 AM on Monday 22 Dec 2014 (Local Time) from KOLZ Reporting Station
Haze Haze  
Wind Chill: 24°   Ceiling: 1900
Heat Index: 34°   Visibility: 3mi
Dew Point: 34°   Wind: 15mph
Humidity: 100%   Direction: 140°SE
Pressure: 29.72"   Gusts: NA
Location:  42.62°N, 91.73°W
Report Text: KOLZ 221355Z AUTO 14013KT 3SM BR OVC019 01/01 A2972 RMK AO2
Loading
Personal Weather Stations






























Interactive Weather Map New forecast layout! Learn more

10-Day Weather Forecast

Advertisements
Track Severe Weather on mobile